sensor_id;sensor_type;location;lat;lon;timestamp;P1;durP1;ratioP1;P2;durP2;ratioP2
14092;SDS011;7123;49.468;10.992;2023-12-28T00:02:10;4.37;;;3.60;;
14092;SDS011;7123;49.468;10.992;2023-12-28T00:04:37;5.03;;;4.00;;
14092;SDS011;7123;49.468;10.992;2023-12-28T00:07:04;5.63;;;4.27;;
14092;SDS011;7123;49.468;10.992;2023-12-28T00:09:31;5.93;;;4.23;;
14092;SDS011;7123;49.468;10.992;2023-12-28T00:11:58;5.77;;;3.73;;
14092;SDS011;7123;49.468;10.992;2023-12-28T00:14:25;4.20;;;3.80;;
14092;SDS011;7123;49.468;10.992;2023-12-28T00:16:52;4.70;;;4.03;;
14092;SDS011;7123;49.468;10.992;2023-12-28T00:19:19;4.57;;;3.80;;
14092;SDS011;7123;49.468;10.992;2023-12-28T00:21:47;6.07;;;4.43;;
14092;SDS011;7123;49.468;10.992;2023-12-28T00:24:19;5.73;;;4.03;;
14092;SDS011;7123;49.468;10.992;2023-12-28T00:26:46;7.77;;;3.77;;
14092;SDS011;7123;49.468;10.992;2023-12-28T00:29:13;6.07;;;4.33;;
14092;SDS011;7123;49.468;10.992;2023-12-28T00:31:40;5.23;;;4.17;;
14092;SDS011;7123;49.468;10.992;2023-12-28T00:34:07;5.53;;;4.23;;
14092;SDS011;7123;49.468;10.992;2023-12-28T00:36:34;4.30;;;3.70;;
14092;SDS011;7123;49.468;10.992;2023-12-28T00:39:00;6.13;;;3.77;;
14092;SDS011;7123;49.468;10.992;2023-12-28T00:41:27;5.33;;;3.73;;
14092;SDS011;7123;49.468;10.992;2023-12-28T00:43:54;6.43;;;3.80;;
14092;SDS011;7123;49.468;10.992;2023-12-28T00:46:20;5.77;;;4.50;;
14092;SDS011;7123;49.468;10.992;2023-12-28T00:48:47;5.33;;;4.03;;
14092;SDS011;7123;49.468;10.992;2023-12-28T00:51:14;7.20;;;4.30;;
14092;SDS011;7123;49.468;10.992;2023-12-28T00:53:41;5.17;;;4.00;;
14092;SDS011;7123;49.468;10.992;2023-12-28T00:56:09;5.43;;;3.93;;
14092;SDS011;7123;49.468;10.992;2023-12-28T00:58:39;5.00;;;4.10;;
14092;SDS011;7123;49.468;10.992;2023-12-28T01:01:06;5.73;;;4.47;;
14092;SDS011;7123;49.468;10.992;2023-12-28T01:03:34;5.60;;;4.07;;
14092;SDS011;7123;49.468;10.992;2023-12-28T01:06:01;5.37;;;4.10;;
14092;SDS011;7123;49.468;10.992;2023-12-28T01:08:28;4.23;;;3.80;;
14092;SDS011;7123;49.468;10.992;2023-12-28T01:10:55;4.73;;;3.70;;
14092;SDS011;7123;49.468;10.992;2023-12-28T01:13:22;5.03;;;4.03;;
14092;SDS011;7123;49.468;10.992;2023-12-28T01:15:49;4.53;;;4.13;;
14092;SDS011;7123;49.468;10.992;2023-12-28T01:18:16;5.50;;;3.90;;
14092;SDS011;7123;49.468;10.992;2023-12-28T01:20:43;3.97;;;3.57;;
14092;SDS011;7123;49.468;10.992;2023-12-28T01:23:09;4.13;;;3.60;;
14092;SDS011;7123;49.468;10.992;2023-12-28T01:25:36;4.33;;;3.87;;
14092;SDS011;7123;49.468;10.992;2023-12-28T01:28:03;4.87;;;4.13;;
14092;SDS011;7123;49.468;10.992;2023-12-28T01:30:31;4.90;;;3.70;;
14092;SDS011;7123;49.468;10.992;2023-12-28T01:32:57;5.00;;;3.47;;
14092;SDS011;7123;49.468;10.992;2023-12-28T01:35:24;3.83;;;3.10;;
14092;SDS011;7123;49.468;10.992;2023-12-28T01:37:51;5.57;;;3.50;;
14092;SDS011;7123;49.468;10.992;2023-12-28T01:40:18;4.03;;;3.40;;
14092;SDS011;7123;49.468;10.992;2023-12-28T01:42:45;4.80;;;3.70;;
14092;SDS011;7123;49.468;10.992;2023-12-28T01:45:11;6.23;;;3.80;;
14092;SDS011;7123;49.468;10.992;2023-12-28T01:47:38;3.57;;;3.20;;
14092;SDS011;7123;49.468;10.992;2023-12-28T01:50:06;4.73;;;3.53;;
14092;SDS011;7123;49.468;10.992;2023-12-28T01:52:33;3.30;;;3.00;;
14092;SDS011;7123;49.468;10.992;2023-12-28T01:55:01;4.53;;;3.70;;
14092;SDS011;7123;49.468;10.992;2023-12-28T01:57:29;4.13;;;3.20;;
14092;SDS011;7123;49.468;10.992;2023-12-28T01:59:56;4.23;;;3.33;;
14092;SDS011;7123;49.468;10.992;2023-12-28T02:02:27;4.07;;;3.40;;
14092;SDS011;7123;49.468;10.992;2023-12-28T02:04:56;4.03;;;3.27;;
14092;SDS011;7123;49.468;10.992;2023-12-28T02:07:22;4.63;;;3.40;;
14092;SDS011;7123;49.468;10.992;2023-12-28T02:09:51;3.37;;;2.83;;
14092;SDS011;7123;49.468;10.992;2023-12-28T02:12:18;3.30;;;3.00;;
14092;SDS011;7123;49.468;10.992;2023-12-28T02:14:44;3.77;;;3.37;;
14092;SDS011;7123;49.468;10.992;2023-12-28T02:17:14;3.33;;;3.03;;
14092;SDS011;7123;49.468;10.992;2023-12-28T02:19:55;4.37;;;3.40;;
14092;SDS011;7123;49.468;10.992;2023-12-28T02:22:25;3.77;;;3.13;;
14092;SDS011;7123;49.468;10.992;2023-12-28T02:25:05;5.10;;;3.13;;
14092;SDS011;7123;49.468;10.992;2023-12-28T02:27:39;3.17;;;2.87;;
14092;SDS011;7123;49.468;10.992;2023-12-28T02:30:13;4.77;;;3.20;;
14092;SDS011;7123;49.468;10.992;2023-12-28T02:38:01;3.20;;;2.70;;
14092;SDS011;7123;49.468;10.992;2023-12-28T02:40:37;4.73;;;3.03;;
14092;SDS011;7123;49.468;10.992;2023-12-28T02:43:05;3.93;;;3.00;;
14092;SDS011;7123;49.468;10.992;2023-12-28T02:45:33;4.23;;;3.23;;
14092;SDS011;7123;49.468;10.992;2023-12-28T02:48:01;4.00;;;3.00;;
14092;SDS011;7123;49.468;10.992;2023-12-28T02:50:29;3.17;;;2.90;;
14092;SDS011;7123;49.468;10.992;2023-12-28T02:52:59;3.37;;;2.87;;
14092;SDS011;7123;49.468;10.992;2023-12-28T02:55:26;2.70;;;2.50;;
14092;SDS011;7123;49.468;10.992;2023-12-28T02:57:54;2.73;;;2.53;;
14092;SDS011;7123;49.468;10.992;2023-12-28T03:00:22;3.83;;;2.77;;
14092;SDS011;7123;49.468;10.992;2023-12-28T03:02:49;5.37;;;3.07;;
14092;SDS011;7123;49.468;10.992;2023-12-28T03:05:16;4.50;;;2.70;;
14092;SDS011;7123;49.468;10.992;2023-12-28T03:07:44;3.20;;;2.90;;
14092;SDS011;7123;49.468;10.992;2023-12-28T03:10:11;6.33;;;3.30;;
14092;SDS011;7123;49.468;10.992;2023-12-28T03:12:40;3.07;;;2.77;;
14092;SDS011;7123;49.468;10.992;2023-12-28T03:15:07;4.47;;;3.10;;
14092;SDS011;7123;49.468;10.992;2023-12-28T03:17:34;3.10;;;2.80;;
14092;SDS011;7123;49.468;10.992;2023-12-28T03:20:03;2.83;;;2.57;;
14092;SDS011;7123;49.468;10.992;2023-12-28T03:22:30;3.73;;;3.07;;
14092;SDS011;7123;49.468;10.992;2023-12-28T03:24:57;4.20;;;3.30;;
14092;SDS011;7123;49.468;10.992;2023-12-28T03:27:24;2.70;;;2.50;;
14092;SDS011;7123;49.468;10.992;2023-12-28T03:29:51;3.23;;;2.93;;
14092;SDS011;7123;49.468;10.992;2023-12-28T03:32:17;3.00;;;2.67;;
14092;SDS011;7123;49.468;10.992;2023-12-28T03:34:44;7.87;;;2.90;;
14092;SDS011;7123;49.468;10.992;2023-12-28T03:37:11;3.20;;;2.53;;
14092;SDS011;7123;49.468;10.992;2023-12-28T03:39:38;2.97;;;2.67;;
14092;SDS011;7123;49.468;10.992;2023-12-28T03:42:05;3.03;;;2.70;;
14092;SDS011;7123;49.468;10.992;2023-12-28T03:44:31;3.30;;;3.00;;
14092;SDS011;7123;49.468;10.992;2023-12-28T03:46:58;5.73;;;3.00;;
14092;SDS011;7123;49.468;10.992;2023-12-28T03:49:26;3.73;;;3.00;;
14092;SDS011;7123;49.468;10.992;2023-12-28T03:51:53;3.47;;;2.80;;
14092;SDS011;7123;49.468;10.992;2023-12-28T03:54:20;2.83;;;2.60;;
14092;SDS011;7123;49.468;10.992;2023-12-28T03:56:47;3.63;;;3.00;;
14092;SDS011;7123;49.468;10.992;2023-12-28T03:59:14;3.43;;;3.13;;
14092;SDS011;7123;49.468;10.992;2023-12-28T04:01:41;3.60;;;2.70;;
14092;SDS011;7123;49.468;10.992;2023-12-28T04:04:09;3.03;;;2.70;;
14092;SDS011;7123;49.468;10.992;2023-12-28T04:06:37;3.20;;;2.90;;
14092;SDS011;7123;49.468;10.992;2023-12-28T04:09:04;3.50;;;2.83;;
14092;SDS011;7123;49.468;10.992;2023-12-28T04:11:31;3.00;;;2.50;;
14092;SDS011;7123;49.468;10.992;2023-12-28T04:13:58;3.97;;;3.10;;
14092;SDS011;7123;49.468;10.992;2023-12-28T04:16:24;3.43;;;2.77;;
14092;SDS011;7123;49.468;10.992;2023-12-28T04:18:51;3.30;;;3.00;;
14092;SDS011;7123;49.468;10.992;2023-12-28T04:21:18;2.83;;;2.60;;
14092;SDS011;7123;49.468;10.992;2023-12-28T04:23:45;3.93;;;3.20;;
14092;SDS011;7123;49.468;10.992;2023-12-28T04:26:12;2.80;;;2.50;;
14092;SDS011;7123;49.468;10.992;2023-12-28T04:28:39;3.20;;;2.90;;
14092;SDS011;7123;49.468;10.992;2023-12-28T04:31:06;3.13;;;2.70;;
14092;SDS011;7123;49.468;10.992;2023-12-28T04:33:33;4.17;;;3.20;;
14092;SDS011;7123;49.468;10.992;2023-12-28T04:36:04;4.33;;;2.80;;
14092;SDS011;7123;49.468;10.992;2023-12-28T04:38:32;4.37;;;2.77;;
14092;SDS011;7123;49.468;10.992;2023-12-28T04:40:59;3.57;;;3.10;;
14092;SDS011;7123;49.468;10.992;2023-12-28T04:43:27;3.63;;;2.90;;
14092;SDS011;7123;49.468;10.992;2023-12-28T04:45:54;3.10;;;2.63;;
14092;SDS011;7123;49.468;10.992;2023-12-28T04:48:21;4.00;;;3.00;;
14092;SDS011;7123;49.468;10.992;2023-12-28T04:50:50;3.30;;;3.00;;
14092;SDS011;7123;49.468;10.992;2023-12-28T04:53:18;3.57;;;2.90;;
14092;SDS011;7123;49.468;10.992;2023-12-28T04:55:45;3.00;;;2.70;;
14092;SDS011;7123;49.468;10.992;2023-12-28T04:58:12;4.37;;;2.67;;
14092;SDS011;7123;49.468;10.992;2023-12-28T05:00:39;3.03;;;2.73;;
14092;SDS011;7123;49.468;10.992;2023-12-28T05:03:06;3.40;;;2.93;;
14092;SDS011;7123;49.468;10.992;2023-12-28T05:05:33;2.87;;;2.60;;
14092;SDS011;7123;49.468;10.992;2023-12-28T05:08:00;2.60;;;2.40;;
14092;SDS011;7123;49.468;10.992;2023-12-28T05:10:27;3.27;;;2.90;;
14092;SDS011;7123;49.468;10.992;2023-12-28T05:12:54;4.93;;;2.70;;
14092;SDS011;7123;49.468;10.992;2023-12-28T05:15:27;3.27;;;2.93;;
14092;SDS011;7123;49.468;10.992;2023-12-28T05:17:55;3.10;;;2.80;;
14092;SDS011;7123;49.468;10.992;2023-12-28T05:20:22;3.30;;;3.00;;
14092;SDS011;7123;49.468;10.992;2023-12-28T05:22:49;2.93;;;2.60;;
14092;SDS011;7123;49.468;10.992;2023-12-28T05:25:16;3.37;;;2.87;;
14092;SDS011;7123;49.468;10.992;2023-12-28T05:27:43;2.60;;;2.40;;
14092;SDS011;7123;49.468;10.992;2023-12-28T05:30:10;2.67;;;2.40;;
14092;SDS011;7123;49.468;10.992;2023-12-28T05:32:38;2.70;;;2.50;;
14092;SDS011;7123;49.468;10.992;2023-12-28T05:35:05;3.00;;;2.70;;
14092;SDS011;7123;49.468;10.992;2023-12-28T05:37:32;3.60;;;2.73;;
14092;SDS011;7123;49.468;10.992;2023-12-28T05:39:59;5.40;;;2.73;;
14092;SDS011;7123;49.468;10.992;2023-12-28T05:42:26;2.90;;;2.60;;
14092;SDS011;7123;49.468;10.992;2023-12-28T05:44:53;2.70;;;2.50;;
14092;SDS011;7123;49.468;10.992;2023-12-28T05:47:19;2.90;;;2.60;;
14092;SDS011;7123;49.468;10.992;2023-12-28T05:49:46;3.20;;;2.90;;
14092;SDS011;7123;49.468;10.992;2023-12-28T05:52:13;2.90;;;2.70;;
14092;SDS011;7123;49.468;10.992;2023-12-28T05:54:42;3.50;;;2.97;;
14092;SDS011;7123;49.468;10.992;2023-12-28T05:57:10;3.97;;;2.60;;
14092;SDS011;7123;49.468;10.992;2023-12-28T05:59:37;2.57;;;2.37;;
14092;SDS011;7123;49.468;10.992;2023-12-28T06:02:06;6.37;;;3.07;;
14092;SDS011;7123;49.468;10.992;2023-12-28T06:04:33;2.67;;;2.47;;
14092;SDS011;7123;49.468;10.992;2023-12-28T06:07:01;4.03;;;2.87;;
14092;SDS011;7123;49.468;10.992;2023-12-28T06:09:29;6.20;;;3.10;;
14092;SDS011;7123;49.468;10.992;2023-12-28T06:11:56;4.67;;;2.97;;
14092;SDS011;7123;49.468;10.992;2023-12-28T06:14:23;3.10;;;2.50;;
14092;SDS011;7123;49.468;10.992;2023-12-28T06:16:49;3.43;;;3.07;;
14092;SDS011;7123;49.468;10.992;2023-12-28T06:19:16;3.63;;;2.80;;
14092;SDS011;7123;49.468;10.992;2023-12-28T06:21:43;3.60;;;3.00;;
14092;SDS011;7123;49.468;10.992;2023-12-28T06:24:10;4.13;;;3.17;;
14092;SDS011;7123;49.468;10.992;2023-12-28T06:26:40;5.23;;;3.37;;
14092;SDS011;7123;49.468;10.992;2023-12-28T06:29:10;3.47;;;3.00;;
14092;SDS011;7123;49.468;10.992;2023-12-28T06:31:37;4.70;;;3.17;;
14092;SDS011;7123;49.468;10.992;2023-12-28T06:34:05;3.30;;;3.00;;
14092;SDS011;7123;49.468;10.992;2023-12-28T06:36:33;4.77;;;2.87;;
14092;SDS011;7123;49.468;10.992;2023-12-28T06:39:00;5.00;;;3.03;;
14092;SDS011;7123;49.468;10.992;2023-12-28T06:41:27;3.53;;;2.90;;
14092;SDS011;7123;49.468;10.992;2023-12-28T06:43:54;4.23;;;3.30;;
14092;SDS011;7123;49.468;10.992;2023-12-28T06:46:21;3.57;;;3.13;;
14092;SDS011;7123;49.468;10.992;2023-12-28T06:48:48;3.63;;;3.30;;
14092;SDS011;7123;49.468;10.992;2023-12-28T06:51:16;4.33;;;2.70;;
14092;SDS011;7123;49.468;10.992;2023-12-28T06:53:45;5.17;;;3.00;;
14092;SDS011;7123;49.468;10.992;2023-12-28T06:56:12;3.43;;;3.00;;
14092;SDS011;7123;49.468;10.992;2023-12-28T06:58:39;4.27;;;3.00;;
14092;SDS011;7123;49.468;10.992;2023-12-28T07:01:06;5.90;;;3.00;;
14092;SDS011;7123;49.468;10.992;2023-12-28T07:03:33;3.30;;;3.00;;
14092;SDS011;7123;49.468;10.992;2023-12-28T07:06:00;3.80;;;3.10;;
14092;SDS011;7123;49.468;10.992;2023-12-28T07:08:27;5.70;;;2.80;;
14092;SDS011;7123;49.468;10.992;2023-12-28T07:10:54;3.47;;;2.80;;
14092;SDS011;7123;49.468;10.992;2023-12-28T07:13:21;3.20;;;2.90;;
14092;SDS011;7123;49.468;10.992;2023-12-28T07:15:47;2.73;;;2.53;;
14092;SDS011;7123;49.468;10.992;2023-12-28T07:18:14;4.20;;;3.03;;
14092;SDS011;7123;49.468;10.992;2023-12-28T07:20:41;3.63;;;2.80;;
14092;SDS011;7123;49.468;10.992;2023-12-28T07:23:08;3.00;;;2.67;;
14092;SDS011;7123;49.468;10.992;2023-12-28T07:25:35;5.83;;;2.90;;
14092;SDS011;7123;49.468;10.992;2023-12-28T07:28:02;6.07;;;2.80;;
14092;SDS011;7123;49.468;10.992;2023-12-28T07:30:29;3.10;;;2.90;;
14092;SDS011;7123;49.468;10.992;2023-12-28T07:32:56;2.97;;;2.77;;
14092;SDS011;7123;49.468;10.992;2023-12-28T07:35:23;3.03;;;2.73;;
14092;SDS011;7123;49.468;10.992;2023-12-28T07:37:50;3.47;;;3.10;;
14092;SDS011;7123;49.468;10.992;2023-12-28T07:40:17;6.00;;;3.07;;
14092;SDS011;7123;49.468;10.992;2023-12-28T07:42:44;4.10;;;3.07;;
14092;SDS011;7123;49.468;10.992;2023-12-28T07:45:11;3.23;;;2.93;;
14092;SDS011;7123;49.468;10.992;2023-12-28T07:47:37;3.83;;;3.00;;
14092;SDS011;7123;49.468;10.992;2023-12-28T07:50:04;3.80;;;2.90;;
14092;SDS011;7123;49.468;10.992;2023-12-28T07:52:32;3.00;;;2.70;;
14092;SDS011;7123;49.468;10.992;2023-12-28T07:54:59;6.90;;;2.90;;
14092;SDS011;7123;49.468;10.992;2023-12-28T07:57:26;3.63;;;2.90;;
14092;SDS011;7123;49.468;10.992;2023-12-28T07:59:52;3.67;;;3.03;;
14092;SDS011;7123;49.468;10.992;2023-12-28T08:02:19;3.83;;;3.20;;
14092;SDS011;7123;49.468;10.992;2023-12-28T08:04:47;5.60;;;3.37;;
14092;SDS011;7123;49.468;10.992;2023-12-28T08:07:15;3.63;;;3.33;;
14092;SDS011;7123;49.468;10.992;2023-12-28T08:09:41;3.97;;;3.23;;
14092;SDS011;7123;49.468;10.992;2023-12-28T08:12:08;3.63;;;3.33;;
14092;SDS011;7123;49.468;10.992;2023-12-28T08:14:35;3.57;;;3.27;;
14092;SDS011;7123;49.468;10.992;2023-12-28T08:17:02;3.60;;;3.30;;
14092;SDS011;7123;49.468;10.992;2023-12-28T08:19:29;4.27;;;3.40;;
14092;SDS011;7123;49.468;10.992;2023-12-28T08:21:56;3.50;;;3.20;;
14092;SDS011;7123;49.468;10.992;2023-12-28T08:24:23;4.67;;;3.40;;
14092;SDS011;7123;49.468;10.992;2023-12-28T08:26:50;4.03;;;3.43;;
14092;SDS011;7123;49.468;10.992;2023-12-28T08:29:16;3.63;;;3.20;;
14092;SDS011;7123;49.468;10.992;2023-12-28T08:31:44;3.50;;;3.17;;
14092;SDS011;7123;49.468;10.992;2023-12-28T08:34:13;3.60;;;3.30;;
14092;SDS011;7123;49.468;10.992;2023-12-28T08:36:41;6.00;;;4.53;;
14092;SDS011;7123;49.468;10.992;2023-12-28T08:39:09;4.17;;;3.60;;
14092;SDS011;7123;49.468;10.992;2023-12-28T08:41:35;4.17;;;3.60;;
14092;SDS011;7123;49.468;10.992;2023-12-28T08:44:02;4.30;;;3.90;;
14092;SDS011;7123;49.468;10.992;2023-12-28T08:46:29;6.37;;;3.80;;
14092;SDS011;7123;49.468;10.992;2023-12-28T08:48:56;6.93;;;4.00;;
14092;SDS011;7123;49.468;10.992;2023-12-28T08:51:23;5.23;;;3.30;;
14092;SDS011;7123;49.468;10.992;2023-12-28T08:53:50;7.00;;;4.00;;
14092;SDS011;7123;49.468;10.992;2023-12-28T08:56:17;6.00;;;3.67;;
14092;SDS011;7123;49.468;10.992;2023-12-28T08:58:49;7.00;;;4.03;;
14092;SDS011;7123;49.468;10.992;2023-12-28T09:01:21;8.27;;;4.93;;
14092;SDS011;7123;49.468;10.992;2023-12-28T09:03:49;9.93;;;5.50;;
14092;SDS011;7123;49.468;10.992;2023-12-28T09:06:17;9.37;;;5.20;;
14092;SDS011;7123;49.468;10.992;2023-12-28T09:08:44;6.60;;;4.13;;
14092;SDS011;7123;49.468;10.992;2023-12-28T09:11:14;6.23;;;4.33;;
14092;SDS011;7123;49.468;10.992;2023-12-28T09:13:41;7.30;;;4.20;;
14092;SDS011;7123;49.468;10.992;2023-12-28T09:16:09;4.77;;;3.50;;
14092;SDS011;7123;49.468;10.992;2023-12-28T09:18:37;4.20;;;3.50;;
14092;SDS011;7123;49.468;10.992;2023-12-28T09:21:05;5.23;;;3.93;;
14092;SDS011;7123;49.468;10.992;2023-12-28T09:23:33;6.33;;;4.03;;
14092;SDS011;7123;49.468;10.992;2023-12-28T09:26:01;6.83;;;4.20;;
14092;SDS011;7123;49.468;10.992;2023-12-28T09:28:30;8.97;;;4.10;;
14092;SDS011;7123;49.468;10.992;2023-12-28T09:30:57;5.93;;;4.30;;
14092;SDS011;7123;49.468;10.992;2023-12-28T09:33:24;6.87;;;4.53;;
14092;SDS011;7123;49.468;10.992;2023-12-28T09:35:51;3.67;;;3.10;;
14092;SDS011;7123;49.468;10.992;2023-12-28T09:38:19;4.07;;;3.47;;
14092;SDS011;7123;49.468;10.992;2023-12-28T09:40:46;4.07;;;3.23;;
14092;SDS011;7123;49.468;10.992;2023-12-28T09:43:24;3.83;;;3.10;;
14092;SDS011;7123;49.468;10.992;2023-12-28T09:45:52;4.50;;;3.37;;
14092;SDS011;7123;49.468;10.992;2023-12-28T09:48:21;4.77;;;3.60;;
14092;SDS011;7123;49.468;10.992;2023-12-28T09:50:52;4.27;;;3.50;;
14092;SDS011;7123;49.468;10.992;2023-12-28T09:53:24;4.97;;;3.27;;
14092;SDS011;7123;49.468;10.992;2023-12-28T09:55:52;2.77;;;2.50;;
14092;SDS011;7123;49.468;10.992;2023-12-28T09:58:20;3.33;;;2.90;;
14092;SDS011;7123;49.468;10.992;2023-12-28T10:00:48;4.07;;;3.33;;
14092;SDS011;7123;49.468;10.992;2023-12-28T10:03:17;5.03;;;3.63;;
14092;SDS011;7123;49.468;10.992;2023-12-28T10:05:45;3.50;;;3.20;;
14092;SDS011;7123;49.468;10.992;2023-12-28T10:08:13;3.60;;;3.23;;
14092;SDS011;7123;49.468;10.992;2023-12-28T10:10:42;6.10;;;3.47;;
14092;SDS011;7123;49.468;10.992;2023-12-28T10:13:17;5.30;;;3.40;;
14092;SDS011;7123;49.468;10.992;2023-12-28T10:15:44;4.20;;;3.50;;
14092;SDS011;7123;49.468;10.992;2023-12-28T10:18:10;5.33;;;3.43;;
14092;SDS011;7123;49.468;10.992;2023-12-28T10:20:38;4.60;;;3.60;;
14092;SDS011;7123;49.468;10.992;2023-12-28T10:23:05;4.83;;;4.00;;
14092;SDS011;7123;49.468;10.992;2023-12-28T10:25:32;4.33;;;3.53;;
14092;SDS011;7123;49.468;10.992;2023-12-28T10:28:03;7.17;;;4.27;;
14092;SDS011;7123;49.468;10.992;2023-12-28T10:30:32;13.90;;;5.43;;
14092;SDS011;7123;49.468;10.992;2023-12-28T10:33:00;7.63;;;4.50;;
14092;SDS011;7123;49.468;10.992;2023-12-28T10:35:28;6.33;;;4.23;;
14092;SDS011;7123;49.468;10.992;2023-12-28T10:37:55;4.13;;;3.67;;
14092;SDS011;7123;49.468;10.992;2023-12-28T10:40:30;9.70;;;4.17;;
14092;SDS011;7123;49.468;10.992;2023-12-28T10:43:04;6.83;;;4.43;;
14092;SDS011;7123;49.468;10.992;2023-12-28T10:45:33;11.70;;;5.40;;
14092;SDS011;7123;49.468;10.992;2023-12-28T10:48:04;6.17;;;4.60;;
14092;SDS011;7123;49.468;10.992;2023-12-28T10:56:06;5.83;;;3.70;;
14092;SDS011;7123;49.468;10.992;2023-12-28T11:01:32;5.33;;;3.93;;
14092;SDS011;7123;49.468;10.992;2023-12-28T11:06:36;4.47;;;3.70;;
14092;SDS011;7123;49.468;10.992;2023-12-28T11:09:04;5.57;;;3.73;;
14092;SDS011;7123;49.468;10.992;2023-12-28T11:11:36;5.57;;;3.47;;
14092;SDS011;7123;49.468;10.992;2023-12-28T11:14:04;6.20;;;4.20;;
14092;SDS011;7123;49.468;10.992;2023-12-28T11:16:31;3.80;;;3.50;;
14092;SDS011;7123;49.468;10.992;2023-12-28T11:18:59;4.90;;;3.63;;
14092;SDS011;7123;49.468;10.992;2023-12-28T11:21:26;7.63;;;4.00;;
14092;SDS011;7123;49.468;10.992;2023-12-28T11:23:54;8.70;;;4.50;;
14092;SDS011;7123;49.468;10.992;2023-12-28T11:26:22;5.13;;;3.83;;
14092;SDS011;7123;49.468;10.992;2023-12-28T11:28:49;4.47;;;3.60;;
14092;SDS011;7123;49.468;10.992;2023-12-28T11:31:16;6.13;;;4.07;;
14092;SDS011;7123;49.468;10.992;2023-12-28T11:33:47;6.00;;;3.87;;
14092;SDS011;7123;49.468;10.992;2023-12-28T11:36:21;8.13;;;3.80;;
14092;SDS011;7123;49.468;10.992;2023-12-28T11:39:02;6.40;;;4.17;;
14092;SDS011;7123;49.468;10.992;2023-12-28T11:41:31;5.90;;;3.97;;
14092;SDS011;7123;49.468;10.992;2023-12-28T11:44:02;5.63;;;3.87;;
14092;SDS011;7123;49.468;10.992;2023-12-28T11:46:31;4.80;;;3.60;;
14092;SDS011;7123;49.468;10.992;2023-12-28T11:49:03;3.70;;;3.37;;
14092;SDS011;7123;49.468;10.992;2023-12-28T11:51:35;4.20;;;3.40;;
14092;SDS011;7123;49.468;10.992;2023-12-28T11:54:05;4.77;;;3.70;;
14092;SDS011;7123;49.468;10.992;2023-12-28T11:56:32;5.90;;;3.40;;
14092;SDS011;7123;49.468;10.992;2023-12-28T11:58:59;3.93;;;3.10;;
14092;SDS011;7123;49.468;10.992;2023-12-28T12:01:26;4.07;;;3.40;;
14092;SDS011;7123;49.468;10.992;2023-12-28T12:03:53;4.03;;;3.63;;
14092;SDS011;7123;49.468;10.992;2023-12-28T12:06:20;4.73;;;4.20;;
14092;SDS011;7123;49.468;10.992;2023-12-28T12:08:47;5.23;;;3.93;;
14092;SDS011;7123;49.468;10.992;2023-12-28T12:11:16;6.43;;;3.97;;
14092;SDS011;7123;49.468;10.992;2023-12-28T12:13:46;7.20;;;4.27;;
14092;SDS011;7123;49.468;10.992;2023-12-28T12:16:17;7.07;;;4.73;;
14092;SDS011;7123;49.468;10.992;2023-12-28T12:18:44;22.63;;;10.33;;
14092;SDS011;7123;49.468;10.992;2023-12-28T12:21:11;4.73;;;4.10;;
14092;SDS011;7123;49.468;10.992;2023-12-28T12:23:38;11.40;;;6.43;;
14092;SDS011;7123;49.468;10.992;2023-12-28T12:26:06;9.83;;;4.60;;
14092;SDS011;7123;49.468;10.992;2023-12-28T12:28:33;9.17;;;4.37;;
14092;SDS011;7123;49.468;10.992;2023-12-28T12:31:00;6.47;;;4.80;;
14092;SDS011;7123;49.468;10.992;2023-12-28T12:33:29;14.30;;;6.40;;
14092;SDS011;7123;49.468;10.992;2023-12-28T12:35:57;23.27;;;10.73;;
14092;SDS011;7123;49.468;10.992;2023-12-28T12:38:24;9.60;;;6.00;;
14092;SDS011;7123;49.468;10.992;2023-12-28T12:40:52;22.27;;;10.13;;
14092;SDS011;7123;49.468;10.992;2023-12-28T12:43:19;7.40;;;4.80;;
14092;SDS011;7123;49.468;10.992;2023-12-28T12:45:46;5.20;;;4.43;;
14092;SDS011;7123;49.468;10.992;2023-12-28T12:48:14;9.87;;;5.60;;
14092;SDS011;7123;49.468;10.992;2023-12-28T12:50:42;4.40;;;4.00;;
14092;SDS011;7123;49.468;10.992;2023-12-28T12:53:09;6.73;;;4.47;;
14092;SDS011;7123;49.468;10.992;2023-12-28T12:55:37;3.23;;;2.93;;
14092;SDS011;7123;49.468;10.992;2023-12-28T12:58:12;3.70;;;3.00;;
14092;SDS011;7123;49.468;10.992;2023-12-28T13:00:44;4.50;;;3.20;;
14092;SDS011;7123;49.468;10.992;2023-12-28T13:03:13;2.33;;;1.90;;
14092;SDS011;7123;49.468;10.992;2023-12-28T13:05:40;3.33;;;2.53;;
14092;SDS011;7123;49.468;10.992;2023-12-28T13:08:11;2.70;;;2.50;;
14092;SDS011;7123;49.468;10.992;2023-12-28T13:10:37;5.20;;;3.67;;
14092;SDS011;7123;49.468;10.992;2023-12-28T13:13:08;3.43;;;3.13;;
14092;SDS011;7123;49.468;10.992;2023-12-28T13:15:35;3.23;;;2.63;;
14092;SDS011;7123;49.468;10.992;2023-12-28T13:18:02;4.57;;;2.90;;
14092;SDS011;7123;49.468;10.992;2023-12-28T13:20:29;4.30;;;3.03;;
14092;SDS011;7123;49.468;10.992;2023-12-28T13:22:55;5.93;;;3.73;;
14092;SDS011;7123;49.468;10.992;2023-12-28T13:25:23;4.33;;;3.80;;
14092;SDS011;7123;49.468;10.992;2023-12-28T13:27:50;6.37;;;4.40;;
14092;SDS011;7123;49.468;10.992;2023-12-28T13:30:17;3.77;;;3.23;;
14092;SDS011;7123;49.468;10.992;2023-12-28T13:32:44;7.77;;;4.13;;
14092;SDS011;7123;49.468;10.992;2023-12-28T13:35:11;9.17;;;4.80;;
14092;SDS011;7123;49.468;10.992;2023-12-28T13:37:37;4.70;;;3.90;;
14092;SDS011;7123;49.468;10.992;2023-12-28T13:40:05;4.87;;;3.47;;
14092;SDS011;7123;49.468;10.992;2023-12-28T13:42:33;4.10;;;3.73;;
14092;SDS011;7123;49.468;10.992;2023-12-28T13:45:00;6.77;;;4.63;;
14092;SDS011;7123;49.468;10.992;2023-12-28T13:47:26;3.47;;;3.13;;
14092;SDS011;7123;49.468;10.992;2023-12-28T13:49:53;7.33;;;3.60;;
14092;SDS011;7123;49.468;10.992;2023-12-28T13:52:21;3.60;;;1.97;;
14092;SDS011;7123;49.468;10.992;2023-12-28T13:54:47;2.27;;;2.07;;
14092;SDS011;7123;49.468;10.992;2023-12-28T13:57:14;2.60;;;2.40;;
14092;SDS011;7123;49.468;10.992;2023-12-28T13:59:41;2.13;;;1.93;;
14092;SDS011;7123;49.468;10.992;2023-12-28T14:02:08;2.70;;;2.23;;
14092;SDS011;7123;49.468;10.992;2023-12-28T14:04:35;4.37;;;1.90;;
14092;SDS011;7123;49.468;10.992;2023-12-28T14:07:02;5.00;;;1.40;;
14092;SDS011;7123;49.468;10.992;2023-12-28T14:09:29;2.20;;;1.47;;
14092;SDS011;7123;49.468;10.992;2023-12-28T14:11:59;3.57;;;1.27;;
14092;SDS011;7123;49.468;10.992;2023-12-28T14:14:26;2.33;;;1.63;;
14092;SDS011;7123;49.468;10.992;2023-12-28T14:16:52;3.17;;;1.50;;
14092;SDS011;7123;49.468;10.992;2023-12-28T14:19:19;3.90;;;1.47;;
14092;SDS011;7123;49.468;10.992;2023-12-28T14:21:46;5.33;;;1.40;;
14092;SDS011;7123;49.468;10.992;2023-12-28T14:24:14;1.70;;;1.40;;
14092;SDS011;7123;49.468;10.992;2023-12-28T14:26:41;1.57;;;1.47;;
14092;SDS011;7123;49.468;10.992;2023-12-28T14:29:09;2.90;;;1.50;;
14092;SDS011;7123;49.468;10.992;2023-12-28T14:31:37;3.57;;;1.90;;
14092;SDS011;7123;49.468;10.992;2023-12-28T14:34:04;1.77;;;1.57;;
14092;SDS011;7123;49.468;10.992;2023-12-28T14:36:32;2.33;;;2.07;;
14092;SDS011;7123;49.468;10.992;2023-12-28T14:39:08;3.33;;;2.37;;
14092;SDS011;7123;49.468;10.992;2023-12-28T14:41:36;5.00;;;2.40;;
14092;SDS011;7123;49.468;10.992;2023-12-28T14:44:07;2.50;;;2.30;;
14092;SDS011;7123;49.468;10.992;2023-12-28T14:46:35;1.87;;;1.77;;
14092;SDS011;7123;49.468;10.992;2023-12-28T14:49:01;2.87;;;1.80;;
14092;SDS011;7123;49.468;10.992;2023-12-28T14:51:29;3.80;;;1.90;;
14092;SDS011;7123;49.468;10.992;2023-12-28T14:53:56;3.93;;;1.70;;
14092;SDS011;7123;49.468;10.992;2023-12-28T14:56:23;1.60;;;1.40;;
14092;SDS011;7123;49.468;10.992;2023-12-28T14:58:51;2.70;;;2.03;;
14092;SDS011;7123;49.468;10.992;2023-12-28T15:01:18;1.70;;;1.60;;
14092;SDS011;7123;49.468;10.992;2023-12-28T15:03:49;2.10;;;1.63;;
14092;SDS011;7123;49.468;10.992;2023-12-28T15:06:15;3.40;;;1.90;;
14092;SDS011;7123;49.468;10.992;2023-12-28T15:08:42;2.50;;;1.60;;